Home   Weather   USA   Bedford   Past weeks
Flag for USA

Past Weather in Bedford, Pennsylvania, USA — Yesterday and Last 2 Weeks

Currently: 61 °F. Sunny. (Weather station: Bedford County Airport, USA). See more current weather

Past Weather in Bedford — Graph

°F

Bedford Temperature Yesterday

Maximum temperature yesterday: 89 °F (at 1:55 pm)
Minimum temperature yesterday: 62 °F (at 5:35 am)
Average temperature yesterday: 73 °F

High & Low Weather Summary for the Past Weeks

 TemperatureHumidityPressure
High89 °F (Jun 21, 1:55 pm)98% (Jun 7, 11:55 pm)30.16 "Hg (Jun 7, 11:55 pm)
Low40 °F (Jun 17, 5:35 am)25% (Jun 17, 11:55 am)29.63 "Hg (Jun 21, 4:35 pm)
Average68 °F78%29.93 "Hg
* Reported Jun 7 1:15 pm — Jun 22 1:15 pm, Bedford. Weather by CustomWeather, © 2021

Note: Actual official high and low records may vary slightly from our data, if they occured in-between our weather recording intervals... More about our weather records

Bedford Weather History for the Previous 24 Hours

Scroll right to see more
 ConditionsComfort  
Time TempWeatherWind HumidityBarometerVisibility
1:15 pm
Tue, Jun 22
61 °FScattered clouds.13 mph64%29.89 "Hg10 mi
12:55 pm61 °FPartly sunny.8 mph67%29.89 "Hg10 mi
12:35 pm60 °FScattered clouds.9 mph70%29.89 "Hg10 mi
11:55 am60 °FSunny.10 mph72%29.89 "Hg10 mi
11:35 am61 °FScattered clouds.6 mph73%29.87 "Hg10 mi
11:15 am61 °FScattered clouds.6 mph78%29.87 "Hg10 mi
10:55 am60 °FScattered clouds.7 mph82%29.87 "Hg10 mi
10:35 am60 °FCloudy.7 mph84%29.87 "Hg10 mi
10:15 am60 °FMore clouds than sun.6 mph98%29.87 "Hg10 mi
9:55 am59 °FCloudy.3 mph98%29.87 "Hg10 mi
9:35 am59 °FRain. More clouds than sun.6 mph98%29.87 "Hg10 mi
9:15 am59 °FRain. Cloudy.5 mph98%29.85 "Hg10 mi
8:55 am59 °FRain. Mostly cloudy.5 mph98%29.86 "Hg7 mi
8:15 am60 °FRain. Cloudy.7 mph98%29.83 "Hg10 mi
7:55 am60 °FRain. Cloudy.7 mph98%29.82 "Hg7 mi
7:35 am61 °FRain. Cloudy.8 mph98%29.81 "Hg5 mi
7:15 am61 °FLight rain. Mostly cloudy.No wind98%29.80 "Hg10 mi
6:55 am61 °FLight rain. More clouds than sun.No wind98%29.80 "Hg10 mi
6:15 am61 °FLight rain. Overcast.No wind98%29.78 "Hg10 mi
5:55 am62 °FRain. More clouds than sun.3 mph98%29.78 "Hg10 mi
5:35 am62 °FLight rain. Mostly cloudy.No wind97%29.77 "Hg10 mi
5:15 am62 °FLight rain. Mostly cloudy.No wind98%29.77 "Hg10 mi
4:55 am63 °FDrizzle. Mostly cloudy.No wind97%29.76 "Hg10 mi
4:35 am63 °FOvercast.6 mph98%29.76 "Hg10 mi
3:35 am64 °FMostly cloudy.6 mph98%29.75 "Hg10 mi
3:15 am63 °FMostly cloudy.3 mph98%29.75 "Hg10 mi
2:55 am63 °FOvercast.No wind98%29.75 "Hg10 mi
2:15 am64 °FRain. Overcast.10 mph96%29.73 "Hg10 mi
1:55 am65 °FDrizzle. Mostly cloudy.10 mph98%29.73 "Hg7 mi
1:35 am66 °FOvercast.5 mph98%29.72 "Hg10 mi
1:15 am65 °FPassing clouds.No wind98%29.71 "Hg10 mi
12:55 am66 °FMostly cloudy.3 mph98%29.71 "Hg10 mi
12:35 am66 °FPassing clouds.No wind98%29.72 "Hg10 mi
12:15 am66 °FPartly cloudy.No wind98%29.72 "Hg10 mi
11:55 pm
Mon, Jun 21
66 °FPassing clouds.No wind98%29.73 "Hg10 mi
11:35 pm66 °FPassing clouds.No wind98%29.74 "Hg10 mi
11:15 pm67 °FPartly cloudy.No wind97%29.73 "Hg10 mi
10:55 pm67 °FOvercast.7 mph97%29.74 "Hg10 mi
10:35 pm66 °FPassing clouds.3 mph98%29.74 "Hg10 mi
9:55 pm67 °FLight rain. Passing clouds.3 mph98%29.72 "Hg10 mi
9:35 pm67 °FLight rain. Passing clouds.5 mph97%29.72 "Hg10 mi
9:15 pm66 °FRain. Passing clouds.6 mph98%29.72 "Hg10 mi
8:55 pm66 °FRain. Passing clouds.9 mph98%29.71 "Hg10 mi
8:15 pm67 °FRain. Broken clouds.8 mph98%29.71 "Hg10 mi
7:35 pm69 °FLight rain. Scattered clouds.6 mph77%29.70 "Hg10 mi
7:15 pm70 °FLight rain. Broken clouds.3 mph73%29.69 "Hg7 mi
6:55 pm71 °FLight rain. Cloudy.6 mph73%29.70 "Hg10 mi
6:35 pm74 °FRain. Broken clouds.3 mph65%29.70 "Hg10 mi
5:55 pm74 °FScattered clouds.12 mph58%29.68 "Hg10 mi
5:35 pm78 °FBroken clouds.23 mph56%29.70 "Hg10 mi
5:15 pm81 °FScattered clouds.8 mph55%29.65 "Hg10 mi
4:55 pm81 °FScattered clouds.10 mph54%29.63 "Hg10 mi
4:35 pm80 °FThundershowers. Sunny.16 mph54%29.63 "Hg10 mi
4:15 pm78 °FSunny.12 mph57%29.65 "Hg10 mi
3:55 pm80 °FSunny.23 mph51%29.66 "Hg10 mi
3:15 pm88 °FScattered clouds.14 mph42%29.65 "Hg10 mi
2:55 pm86 °FPartly sunny.10 mph49%29.65 "Hg10 mi
2:35 pm88 °FScattered clouds.10 mph44%29.64 "Hg10 mi
2:15 pm88 °FScattered clouds.10 mph46%29.64 "Hg10 mi
Weather by CustomWeather, © 2021

See weather overview